^^
Datos históricos de la estación: Murcia-Puente Tocinos
Diario Informe para Marzo 14, 2018 Unidades:  Inglés    Métrico   Ambas
Diario Semanal Mensual Anual Configurable
  Máximo: Mínimo: Media:
Temperatura: 72 °F 53.1 °F 63.5 °F
Punto de rocio: 51.8 °F 42.6 °F 46.8 °F
Humedad: 69% 41% 55%
Velocidad viento: 11.8mph 0mph 4.7mph
Racha viento: 21.9mph - -
Viento- - South
Presión: 30 in 29.6 in -
Precipitación: 0 in    
Historical Graphs
 
 
Tabla de datos para Marzo 14, 2018
Hora Temperatura Punto de rocio Presión Viento Velocidad viento Racha viento Humedad Intensidad lluvia(por hora) Nubes
00:00 63.7 °F 47.1 °F 30 in SW 2.9 mph 2.9 mph 55% 0 in FEW
00:05 63.7 °F 47.1 °F 30 in SW 1.4 mph   55% 0 in FEW
00:10 63.7 °F 47.1 °F 30 in SW 1.4 mph 3.5 mph 55% 0 in FEW
00:15 63.3 °F 47.3 °F 30 in ESE 2.4 mph 5.8 mph 56% 0 in SCT
00:20 63 °F 47.5 °F 30 in ESE 2.4 mph 3.5 mph 57% 0 in CLR
00:25 62.4 °F 47.5 °F 30 in ESE 2 mph 2.4 mph 58% 0 in SCT
00:30 62.2 °F 47.3 °F 30 in East 2 mph 3.5 mph 58% 0 in CLR
00:35 61.9 °F 47.5 °F 30 in East 2 mph 2 mph 59% 0 in SCT
00:40 61.7 °F 47.1 °F 30 in East 2 mph 2.3 mph 59% 0 in CLR
00:45 61.5 °F 47.5 °F 30 in East 1.4 mph 2.3 mph 60% 0 in SCT
00:50 61.5 °F 47.5 °F 30 in East 1.4 mph   60% 0 in CLR
00:55 61.5 °F 47.5 °F 30 in Calm   2.4 mph 60% 0 in SCT
01:00 61.3 °F 47.8 °F 30 in Calm   3.5 mph 61% 0 in SCT
01:05 61.5 °F 48.4 °F 29.9 in SSE 2.4 mph 4.6 mph 62% 0 in SCT
01:10 61.3 °F 48.2 °F 29.9 in SSE 2.4 mph 4.6 mph 62% 0 in CLR
01:15 61.2 °F 48.6 °F 29.9 in SSE 2.9 mph 4.6 mph 63% 0 in FEW
01:20 61 °F 48.4 °F 29.9 in SE 2.9 mph 4.6 mph 63% 0 in FEW
01:25 60.8 °F 47.7 °F 29.9 in SSE 3.1 mph 5.2 mph 62% 0 in FEW
01:30 60.6 °F 47.8 °F 29.9 in SSE 3.1 mph 3.6 mph 63% 0 in FEW
01:35 60.4 °F 47.8 °F 29.9 in SSE 2.9 mph 4.6 mph 63% 0 in FEW
01:40 60.4 °F 47.5 °F 29.9 in ESE 2.9 mph 4.3 mph 62% 0 in FEW
01:45 60.3 °F 46.8 °F 29.9 in SE 3.1 mph 4.6 mph 61% 0 in FEW
01:50 60.3 °F 47.1 °F 29.9 in South 3.1 mph 5.8 mph 62% 0 in FEW
01:55 60.4 °F 46.9 °F 29.9 in South 3.6 mph 4.6 mph 61% 0 in FEW
02:00 60.6 °F 46.8 °F 29.9 in WSW 3.6 mph 5.8 mph 60% 0 in FEW
02:05 61 °F 46.9 °F 29.9 in WSW 3.6 mph 4.6 mph 60% 0 in FEW
02:10 61 °F 46.6 °F 29.9 in WSW 3.6 mph 4.6 mph 59% 0 in FEW
02:15 61 °F 46.6 °F 29.9 in WSW 2.9 mph 2.9 mph 59% 0 in CLR
02:20 61 °F 46.6 °F 29.9 in WSW 2.9 mph 3.5 mph 59% 0 in CLR
02:25 61 °F 46.6 °F 29.9 in WSW 2 mph 2.3 mph 59% 0 in CLR
02:30 60.8 °F 46.8 °F 29.9 in WSW 2 mph   60% 0 in CLR
02:35 60.6 °F 47.1 °F 29.9 in Calm   2.3 mph 61% 0 in CLR
02:40 60.4 °F 46.9 °F 29.9 in Calm   1.8 mph 61% 0 in CLR
02:45 60.1 °F 46.9 °F 29.9 in Calm     62% 0 in CLR
02:50 59.7 °F 46.8 °F 29.9 in Calm   2.9 mph 62% 0 in CLR
02:55 59.4 °F 46.8 °F 29.9 in South 2 mph 4.6 mph 63% 0 in CLR
03:00 59.2 °F 46.6 °F 29.9 in South 2 mph 6.9 mph 63% 0 in CLR
03:05 59 °F 46.4 °F 29.9 in South 4.7 mph 8.1 mph 63% 0 in CLR
03:10 58.8 °F 46.2 °F 29.9 in SSW 4.7 mph 5.8 mph 63% 0 in CLR
03:15 58.8 °F 46.2 °F 29.9 in WSW 4 mph 4.6 mph 63% 0 in CLR
03:20 58.8 °F 46.2 °F 29.9 in SW 4 mph 4.6 mph 63% 0 in CLR
03:25 58.6 °F 46 °F 29.9 in SSW 2.4 mph 4.6 mph 63% 0 in CLR
03:30 58.6 °F 45.7 °F 29.9 in SSW 2.4 mph 4.6 mph 62% 0 in CLR
03:35 58.6 °F 45.1 °F 29.9 in WSW 3.6 mph 5.8 mph 61% 0 in CLR
03:40 58.6 °F 44.8 °F 29.9 in South 3.6 mph 4.6 mph 60% 0 in CLR
03:45 58.6 °F 44.8 °F 29.9 in WNW 3.1 mph 5.8 mph 60% 0 in CLR
03:50 58.5 °F 44.6 °F 29.9 in WSW 3.1 mph 3.6 mph 60% 0 in CLR
03:55 58.3 °F 45 °F 29.9 in NW 2.4 mph 4.6 mph 61% 0 in CLR
04:00 57.9 °F 43.7 °F 29.9 in SSW 2.4 mph 5.8 mph 59% 0 in CLR
04:05 57.9 °F 45 °F 29.9 in NNE 3.1 mph 5.8 mph 62% 0 in CLR
04:10 57.4 °F 45 °F 29.9 in East 3.1 mph 4.6 mph 63% 0 in CLR
04:15 57 °F 44.1 °F 29.9 in SSE 2.9 mph 4.7 mph 62% 0 in CLR
04:20 57 °F 45 °F 29.9 in NW 2.9 mph 3.5 mph 64% 0 in CLR
04:25 57 °F 44.4 °F 29.9 in SSE 2.9 mph 4.6 mph 63% 0 in CLR
04:30 56.8 °F 44.4 °F 29.9 in SSE 2.9 mph 4.6 mph 63% 0 in CLR
04:35 56.7 °F 44.2 °F 29.9 in SSE 2 mph 3.5 mph 63% 0 in CLR
04:40 56.5 °F 44.1 °F 29.9 in SSE 2 mph 2.3 mph 63% 0 in CLR
04:45 56.3 °F 43.9 °F 29.9 in SSE 2 mph 4.6 mph 63% 0 in CLR
04:50 56.3 °F 43.9 °F 29.9 in South 2 mph 4.6 mph 63% 0 in CLR
04:55 56.3 °F 43.9 °F 29.9 in SSW 2.9 mph 4 mph 63% 0 in CLR
05:00 56.5 °F 44.1 °F 29.9 in WSW 2.9 mph 4.6 mph 63% 0 in CLR
05:05 56.5 °F 43.5 °F 29.9 in WSW 3.1 mph 4.6 mph 62% 0 in CLR
05:10 56.5 °F 43.5 °F 29.9 in WSW 3.1 mph 4.6 mph 62% 0 in CLR
05:15 56.5 °F 43.2 °F 29.9 in SSW 3.1 mph 5.8 mph 61% 0 in CLR
05:20 56.7 °F 43.3 °F 29.9 in SSW 3.1 mph 4.6 mph 61% 0 in CLR
05:25 56.7 °F 43 °F 29.9 in SSW 3.6 mph 4.6 mph 60% 0 in CLR
05:30 56.8 °F 43.2 °F 29.9 in SSW 3.6 mph 4.6 mph 60% 0 in CLR
05:35 56.8 °F 43.2 °F 29.9 in SSW 2.9 mph 3.5 mph 60% 0 in CLR
05:40 56.8 °F 43.2 °F 29.9 in South 2.9 mph 4.7 mph 60% 0 in CLR
05:45 56.7 °F 43 °F 29.9 in South 2.9 mph 4.6 mph 60% 0 in CLR
05:51 56.5 °F 43.2 °F 29.9 in South 2.9 mph 4.7 mph 61% 0 in CLR
05:56 56.1 °F 43.3 °F 29.9 in ESE 2.9 mph 4.6 mph 62% 0 in CLR
06:01 55.4 °F 43 °F 29.9 in SE 2.9 mph 4.6 mph 63% 0 in CLR
06:06 54.7 °F 43.2 °F 29.9 in South 3.1 mph 4.7 mph 65% 0 in CLR
06:11 54 °F 43 °F 29.9 in South 3.1 mph 4.6 mph 66% 0 in CLR
06:16 53.8 °F 43.2 °F 29.9 in South 2.9 mph 2.9 mph 67% 0 in CLR
06:21 53.8 °F 43.2 °F 29.9 in South 2.9 mph   67% 0 in CLR
06:26 54 °F 43.2 °F 29.9 in Calm   2.4 mph 67% 0 in CLR
06:31 54 °F 43.2 °F 29.9 in Calm   4.6 mph 67% 0 in CLR
06:36 54.1 °F 43 °F 29.9 in WSW 2.9 mph 4.6 mph 66% 0 in CLR
06:41 54.3 °F 42.8 °F 29.9 in WSW 2.9 mph 2.9 mph 65% 0 in CLR
06:46 54.3 °F 42.8 °F 29.9 in WSW 1.8 mph 2.3 mph 65% 0 in CLR
06:51 54.3 °F 43.2 °F 29.9 in WSW 1.8 mph 2.4 mph 66% 0 in CLR
06:56 54.3 °F 43.2 °F 29.9 in WSW 2 mph 4.6 mph 66% 0 in CLR
07:01 54 °F 43 °F 29.9 in SSE 2 mph 5.8 mph 66% 0 in CLR
07:06 53.2 °F 42.6 °F 29.9 in South 3.6 mph 4.6 mph 67% 0 in CLR
07:11 53.2 °F 43 °F 29.9 in South 3.6 mph 4.6 mph 68% 0 in CLR
07:16 53.2 °F 43 °F 29.9 in SE 3.1 mph 5.8 mph 68% 0 in SCT
07:21 53.2 °F 43 °F 29.9 in ESE 3.1 mph 3.5 mph 68% 0 in SCT
07:26 53.1 °F 42.8 °F 29.9 in SSW 3.1 mph 4.6 mph 68% 0 in SCT
07:31 53.2 °F 43 °F 29.9 in WSW 3.1 mph 4.6 mph 68% 0 in SCT
07:36 53.4 °F 42.6 °F 29.9 in WSW 2 mph 2.3 mph 67% 0 in SCT
07:41 54 °F 43.2 °F 29.9 in East 2 mph 4.6 mph 67% 0 in SCT
07:46 54 °F 43 °F 29.9 in ESE 1.8 mph 2.4 mph 66% 0 in SCT
07:51 53.8 °F 43.2 °F 29.9 in ESE 1.8 mph 2.3 mph 67% 0 in SCT
07:56 54 °F 43.5 °F 29.9 in ESE 1.4 mph 2.3 mph 68% 0 in SCT
08:01 54 °F 43.2 °F 29.9 in ESE 1.4 mph 3.5 mph 67% 0 in SCT
08:06 53.8 °F 43.2 °F 29.9 in South 2.4 mph 4.6 mph 67% 0 in SCT
08:11 53.6 °F 43 °F 29.9 in SSW 2.4 mph 4.6 mph 67% 0 in SCT
08:16 53.6 °F 43 °F 29.9 in SW 3.6 mph 4.6 mph 67% 0 in SCT
08:21 53.8 °F 43.2 °F 29.9 in SE 3.6 mph 4.6 mph 67% 0 in SCT
08:26 54 °F 43.2 °F 29.9 in SSE 3.6 mph 6.9 mph 67% 0 in SCT
08:31 53.4 °F 43.5 °F 29.9 in South 3.6 mph 4.6 mph 69% 0 in SCT
08:36 53.6 °F 43.7 °F 29.9 in SSW 4.3 mph 4.6 mph 69% 0 in SCT
08:41 53.6 °F 43.3 °F 29.9 in South 4.3 mph 6.9 mph 68% 0 in SCT
08:46 53.6 °F 43.7 °F 29.9 in SSE 4.3 mph 6.9 mph 69% 0 in SCT
08:51 53.4 °F 43.5 °F 29.9 in SSE 4.3 mph 9.2 mph 69% 0 in SCT
08:56 53.2 °F 43.3 °F 29.9 in SSE 5.9 mph 8.1 mph 69% 0 in SCT
09:01 53.6 °F 43.3 °F 29.9 in SSE 5.9 mph 9.2 mph 68% 0 in SCT
09:06 54 °F 43.2 °F 29.9 in SSE 6.2 mph 6.9 mph 67% 0 in SCT
09:11 54.7 °F 43.5 °F 29.9 in SSW 6.2 mph 6.9 mph 66% 0 in SCT
09:16 55.2 °F 43.7 °F 29.9 in SSW 4.7 mph 5.8 mph 65% 0 in CLR
09:21 55.9 °F 43.9 °F 29.9 in SSW 4.7 mph 5.8 mph 64% 0 in CLR
09:26 56.7 °F 44.2 °F 29.9 in South 4.3 mph 4.6 mph 63% 0 in CLR
09:31 57 °F 44.1 °F 29.9 in WSW 4.3 mph 4.6 mph 62% 0 in CLR
09:36 57.6 °F 44.2 °F 29.9 in SW 3.1 mph 4.6 mph 61% 0 in CLR
09:41 58.1 °F 44.2 °F 29.9 in SW 3.1 mph 4.6 mph 60% 0 in CLR
09:46 58.6 °F 44.2 °F 29.9 in SSW 2.9 mph 6.9 mph 59% 0 in CLR
09:51 59.2 °F 45 °F 29.9 in SW 2.9 mph 4.6 mph 59% 0 in CLR
09:56 59.7 °F 44.4 °F 29.9 in WSW 2.9 mph 4.6 mph 57% 0 in CLR
10:01 60.3 °F 44.4 °F 29.9 in WSW 2.9 mph 4.6 mph 56% 0 in CLR
10:06 60.6 °F 44.8 °F 29.9 in West 2.4 mph 3.1 mph 56% 0 in CLR
10:11 61.2 °F 45 °F 29.9 in West 2.4 mph 2.4 mph 55% 0 in CLR
10:16 61.3 °F 45 °F 29.9 in West 1.8 mph 4.6 mph 55% 0 in FEW
10:21 61.5 °F 45.1 °F 29.9 in West 1.8 mph 4.6 mph 55% 0 in FEW
10:26 61.5 °F 45.1 °F 29.9 in WSW 2.4 mph 2.4 mph 55% 0 in FEW
10:31 62.1 °F 45.7 °F 29.9 in WSW 2.4 mph 3.5 mph 55% 0 in FEW
10:36 62.4 °F 45.1 °F 29.9 in WSW 2 mph 3.5 mph 53% 0 in FEW
10:41 62.8 °F 45.3 °F 29.9 in West 2 mph 4.6 mph 53% 0 in FEW
10:46 63 °F 45.7 °F 29.9 in West 2 mph 3.5 mph 53% 0 in FEW
10:51 63.1 °F 45.7 °F 29.9 in West 2 mph 5.4 mph 53% 0 in FEW
10:56 63.3 °F 45.9 °F 29.9 in WSW 2.4 mph 4.6 mph 53% 0 in FEW
11:01 63.7 °F 46.2 °F 29.9 in WNW 2.4 mph 3.6 mph 53% 0 in FEW
11:06 64 °F 46 °F 29.9 in WNW 2 mph 3.5 mph 52% 0 in FEW
11:11 64.2 °F 46.2 °F 29.9 in WNW 2 mph 2.3 mph 52% 0 in FEW
11:16 64.9 °F 46.4 °F 29.9 in WNW 1.8 mph 3.5 mph 51% 0 in FEW
11:21 65.5 °F 46.2 °F 29.9 in West 1.8 mph 2.3 mph 50% 0 in FEW
11:26 66 °F 45.9 °F 29.9 in West 1.4 mph 3.5 mph 48% 0 in FEW
11:31 66.2 °F 45.9 °F 29.9 in West 1.4 mph 2.3 mph 48% 0 in FEW
11:36 66.4 °F 46 °F 29.9 in WNW 2 mph 2.3 mph 48% 0 in FEW
11:41 66.4 °F 45.5 °F 29.9 in NW 2 mph 4.6 mph 47% 0 in FEW
11:46 66.4 °F 45.5 °F 29.9 in WNW 2 mph 4.6 mph 47% 0 in FEW
11:51 66.6 °F 45.7 °F 29.9 in WSW 2 mph 4.6 mph 47% 0 in FEW
11:56 66.7 °F 45.9 °F 29.9 in WSW 2.4 mph 4 mph 47% 0 in FEW
12:01 67.3 °F 45.9 °F 29.9 in SE 2.4 mph 4.6 mph 46% 0 in FEW
12:06 67.6 °F 46 °F 29.8 in ESE 2.4 mph 4 mph 46% 0 in FEW
12:11 67.8 °F 45.7 °F 29.8 in South 2.4 mph 4.6 mph 45% 0 in FEW
12:16 68.2 °F 46 °F 29.8 in ENE 2.4 mph 5.8 mph 45% 0 in FEW
12:21 68.2 °F 46 °F 29.8 in NW 2.4 mph 4.6 mph 45% 0 in FEW
12:26 68.5 °F 46.2 °F 29.8 in SE 2.9 mph 4 mph 45% 0 in FEW
12:31 68.9 °F 46 °F 29.8 in NE 2.9 mph 3.5 mph 44% 0 in FEW
12:36 69.1 °F 45.7 °F 29.8 in ENE 2 mph 2.4 mph 43% 0 in FEW
12:41 69.3 °F 46.9 °F 29.8 in NNE 2 mph 5.8 mph 45% 0 in FEW
12:46 69.1 °F 46.8 °F 29.8 in ENE 2.4 mph 4.6 mph 45% 0 in FEW
12:51 68.7 °F 46.6 °F 29.8 in NE 2.4 mph 5.8 mph 45% 0 in FEW
12:56 68.7 °F 46.6 °F 29.8 in NW 3.1 mph 3.5 mph 45% 0 in FEW
13:01 68.7 °F 46.6 °F 29.8 in NE 3.1 mph 4.6 mph 45% 0 in FEW
13:06 69.1 °F 46.8 °F 29.8 in NE 2.9 mph 5.8 mph 45% 0 in FEW
13:11 69.1 °F 46.2 °F 29.8 in NW 2.9 mph 4.6 mph 44% 0 in FEW
13:16 69.4 °F 46.6 °F 29.8 in NNW 3.1 mph 4.6 mph 44% 2.52 in RA
13:21 69.6 °F 46.8 °F 29.8 in NW 3.1 mph 4 mph 44% 2.52 in RA
13:26 69.8 °F 46.9 °F 29.8 in NW 2.9 mph 4.6 mph 44% 2.52 in FEW
13:31 70 °F 47.1 °F 29.8 in NNE 2.9 mph 4.6 mph 44% 2.52 in FEW
13:36 70.2 °F 46.6 °F 29.8 in NW 3.1 mph 5.8 mph 43% 2.52 in FEW
13:41 70.2 °F 46.6 °F 29.8 in NW 3.1 mph 3.1 mph 43% 2.52 in FEW
13:46 70.5 °F 46.9 °F 29.8 in North 2.4 mph 5.2 mph 43% 2.52 in FEW
13:51 70.5 °F 46.9 °F 29.8 in NE 2.4 mph 2.4 mph 43% 2.52 in FEW
13:56 70.7 °F 47.1 °F 29.8 in NE 2.4 mph 2.4 mph 43% 2.52 in FEW
14:01 70.9 °F 47.3 °F 29.8 in ENE 2.4 mph 2.4 mph 43% 2.52 in FEW
14:06 71.1 °F 47.5 °F 29.8 in ESE 1.8 mph 7.4 mph 43% 2.52 in FEW
14:11 70.9 °F 47.3 °F 29.8 in ESE 1.8 mph 10.4 mph 43% 2.52 in FEW
14:16 70.5 °F 47.5 °F 29.8 in ESE 5.9 mph 11.5 mph 44% 0 in FEW
14:21 70.3 °F 48 °F 29.8 in SE 5.9 mph 11.5 mph 45% 0 in FEW
14:26 70.7 °F 47.7 °F 29.8 in SSW 6.4 mph 9.2 mph 44% 0 in FEW
14:31 70.9 °F 47.3 °F 29.8 in SSE 6.4 mph 11.5 mph 43% 0 in FEW
14:36 70.9 °F 46.6 °F 29.7 in SSE 7.4 mph 15 mph 42% 0 in FEW
14:41 70.5 °F 46.9 °F 29.7 in SSE 7.4 mph 12.7 mph 43% 0 in FEW
14:46 70.9 °F 46.6 °F 29.7 in South 9.7 mph 15 mph 42% 0 in FEW
14:51 71.1 °F 46.8 °F 29.7 in SSE 9.7 mph 12.7 mph 42% 0 in FEW
14:56 71.4 °F 47.1 °F 29.7 in SSE 8.7 mph 18.4 mph 42% 0 in FEW
15:01 71.4 °F 47.1 °F 29.7 in East 8.7 mph 12.7 mph 42% 0 in RA
15:06 71.8 °F 46.8 °F 29.7 in SE 9.2 mph 13.8 mph 41% 0 in RA
15:11 71.6 °F 46.6 °F 29.7 in SE 9.2 mph 17.3 mph 41% 0 in FEW
15:16 71.4 °F 47.1 °F 29.7 in SSE 9.2 mph 16.1 mph 42% 0 in BKN
15:21 71.6 °F 47.3 °F 29.7 in SSE 9.2 mph 10.4 mph 42% 0 in BKN
15:26 72 °F 46.9 °F 29.7 in South 8.5 mph 12.5 mph 41% 0 in BKN
15:31 71.6 °F 46.6 °F 29.7 in South 8.5 mph 12.7 mph 41% 0 in BKN
15:36 71.6 °F 47.3 °F 29.7 in ENE 8.7 mph 13.8 mph 42% 0 in BKN
15:41 71.4 °F 47.7 °F 29.7 in SSE 8.7 mph 12.7 mph 43% 0 in BKN
15:46 71.2 °F 47.7 °F 29.7 in ESE 8.5 mph 17.3 mph 43% 0 in BKN
15:51 71.1 °F 47.5 °F 29.7 in SE 8.5 mph 13.8 mph 43% 0 in BKN
15:56 71.1 °F 48 °F 29.7 in ESE 9.2 mph 17.3 mph 44% 0 in BKN
16:01 70.5 °F 47.5 °F 29.7 in ESE 9.2 mph 18.4 mph 44% 0 in BKN
16:06 70.3 °F 48.6 °F 29.7 in SE 11.8 mph 11.8 mph 46% 0 in BKN
16:11 70.3 °F 48.6 °F 29.7 in SE 11.8 mph 11.8 mph 46% 0 in BKN
16:16 70.3 °F 48.6 °F 29.7 in ESE 7.6 mph 15.6 mph 46% 0 in SCT
16:21 70.3 °F 49.1 °F 29.7 in SSW 7.6 mph 11.5 mph 47% 0 in SCT
16:26 70.7 °F 49.5 °F 29.7 in SSE 8.7 mph 12.7 mph 47% 0 in SCT
16:31 70.5 °F 49.3 °F 29.7 in SE 8.7 mph 17.5 mph 47% 0 in SCT
16:36 70.5 °F 49.3 °F 29.7 in SE 10.7 mph 13.8 mph 47% 0 in SCT
16:41 70.5 °F 49.8 °F 29.7 in ESE 10.7 mph 15 mph 48% 0 in SCT
16:46 70.3 °F 49.6 °F 29.7 in SE 9.7 mph 15 mph 48% 0 in SCT
16:51 70.2 °F 50.2 °F 29.6 in SE 9.7 mph 17.3 mph 49% 0 in SCT
16:56 70 °F 49.8 °F 29.6 in East 10.2 mph 13.8 mph 49% 0 in SCT
17:01 70.3 °F 50.4 °F 29.6 in ESE 10.2 mph 10.2 mph 49% 0 in SCT
17:06 70.5 °F 50.4 °F 29.6 in South 6.4 mph 12.7 mph 49% 0 in SCT
17:11 70.3 °F 50.4 °F 29.6 in SSE 6.4 mph 13.8 mph 49% 0 in SCT
17:16 70.2 °F 50.5 °F 29.6 in South 8.7 mph 13.8 mph 50% 0 in SCT
17:21 70 °F 50.5 °F 29.6 in SSE 8.7 mph 15.6 mph 50% 0 in SCT
17:26 69.6 °F 50.2 °F 29.6 in ESE 9.2 mph 11.5 mph 50% 0 in SCT
17:31 69.4 °F 50 °F 29.6 in South 9.2 mph 10.4 mph 50% 0 in SCT
17:36 69.6 °F 49.6 °F 29.7 in SSE 7.6 mph 12.7 mph 49% 0 in SCT
17:41 69.4 °F 50 °F 29.7 in SSE 7.6 mph 13.8 mph 50% 0 in SCT
17:46 69.4 °F 50 °F 29.7 in South 9.2 mph 10.4 mph 50% 0 in SCT
17:51 69.4 °F 50 °F 29.6 in SSE 9.2 mph 13.8 mph 50% 0 in SCT
17:56 69.4 °F 49.5 °F 29.6 in SSE 8.7 mph 12.7 mph 49% 0 in SCT
18:01 69.6 °F 48.6 °F 29.6 in SSE 8.7 mph 13.8 mph 47% 0 in SCT
18:06 69.6 °F 49.1 °F 29.6 in South 9.7 mph 9.7 mph 48% 0 in SCT
18:11 69.6 °F 49.6 °F 29.6 in SSE 9.7 mph 11.5 mph 49% 0 in SCT
18:16 69.4 °F 49.5 °F 29.6 in South 6.2 mph 13.8 mph 49% 0 in FEW
18:21 69.3 °F 49.3 °F 29.6 in SE 6.2 mph 8.1 mph 49% 0 in FEW
18:26 69.3 °F 49.8 °F 29.6 in SSE 7.6 mph 12.7 mph 50% 0 in FEW
18:31 69.1 °F 49.6 °F 29.6 in South 7.6 mph 11.5 mph 50% 0 in FEW
18:36 69.1 °F 49.6 °F 29.6 in SSE 7.6 mph 12.7 mph 50% 0 in FEW
18:41 69.1 °F 50.2 °F 29.6 in South 7.6 mph 12.7 mph 51% 0 in FEW
18:46 68.9 °F 49.5 °F 29.6 in South 9.2 mph 10.4 mph 50% 0 in FEW
18:51 68.7 °F 49.3 °F 29.6 in South 9.2 mph 15 mph 50% 0 in FEW
18:56 68.5 °F 49.6 °F 29.6 in SSE 8.5 mph 12.7 mph 51% 0 in FEW
19:01 68.4 °F 50 °F 29.6 in SW 8.5 mph 12.7 mph 52% 0 in FEW
19:06 68.2 °F 49.8 °F 29.6 in SW 7.6 mph 7.6 mph 52% 0 in FEW
19:11 68.2 °F 50.4 °F 29.6 in SSW 7.6 mph 9.2 mph 53% 0 in FEW
19:16 68 °F 50.2 °F 29.6 in SSE 4.7 mph 5.8 mph 53% 0 in BKN
19:21 67.8 °F 50.2 °F 29.6 in SSE 4.7 mph 4.7 mph 53% 0 in BKN
19:26 67.6 °F 50.9 °F 29.6 in NE 2.9 mph 4.6 mph 55% 0 in BKN
19:31 67.3 °F 51.1 °F 29.6 in NNE 2.9 mph 2.9 mph 56% 0 in BKN
19:36 66.9 °F 51.6 °F 29.6 in ESE 2.9 mph 3.5 mph 58% 0 in BKN
19:41 66.6 °F 51.8 °F 29.6 in ESE 2.9 mph 5.8 mph 59% 0 in BKN
19:46 66.2 °F 51.4 °F 29.6 in ESE 3.1 mph 5.8 mph 59% 0 in BKN
19:51 66 °F 51.6 °F 29.6 in ESE 3.1 mph 4.6 mph 60% 0 in BKN
19:56 65.8 °F 51.6 °F 29.6 in ESE 2.9 mph 4.6 mph 60% 0 in BKN
20:01 65.8 °F 51.6 °F 29.6 in ESE 2.9 mph 5.8 mph 60% 0 in BKN
20:06 65.8 °F 51.6 °F 29.6 in ESE 3.6 mph 6.9 mph 60% 0 in BKN
20:11 65.7 °F 51.4 °F 29.6 in SE 3.6 mph 5.4 mph 60% 0 in BKN
20:16 65.5 °F 51.6 °F 29.6 in SE 4 mph 6.9 mph 61% 0 in FEW
20:21 64.9 °F 51.6 °F 29.6 in SSE 4 mph 6.9 mph 62% 0 in FEW
20:26 65.1 °F 50.9 °F 29.6 in WSW 4.7 mph 10.4 mph 60% 0 in FEW
20:31 65.8 °F 51.1 °F 29.6 in SW 4.7 mph 13.8 mph 59% 0 in FEW
20:36 66 °F 51.3 °F 29.6 in SW 8.1 mph 17.3 mph 59% 0 in FEW
20:41 66 °F 50.4 °F 29.6 in SW 8.1 mph 16.1 mph 57% 0 in FEW
20:46 66.9 °F 49.6 °F 29.6 in West 10.7 mph 15 mph 54% 0 in FEW
20:51 67.5 °F 49.3 °F 29.6 in WSW 10.7 mph 17.3 mph 52% 0 in FEW
20:56 68.2 °F 49.8 °F 29.6 in SSW 10.2 mph 15 mph 52% 0 in FEW
21:01 67.5 °F 50.2 °F 29.6 in WSW 10.2 mph 12.7 mph 54% 0 in FEW
21:06 66.9 °F 50.7 °F 29.6 in SW 8.5 mph 15 mph 56% 0 in FEW
21:11 66.2 °F 50.5 °F 29.6 in South 8.5 mph 11.5 mph 57% 0 in FEW
21:16 65.7 °F 50.5 °F 29.6 in SW 9.2 mph 13.8 mph 58% 0 in BKN
21:21 65.5 °F 50.7 °F 29.6 in SSW 9.2 mph 13.8 mph 59% 0 in BKN
21:26 65.5 °F 50.7 °F 29.6 in South 7.6 mph 8.7 mph 59% 0 in BKN
21:31 65.5 °F 50.4 °F 29.6 in SW 7.6 mph 7.6 mph 58% 0 in BKN
21:36 65.7 °F 50 °F 29.6 in SW 6.4 mph 8.1 mph 57% 0 in BKN
21:41 65.8 °F 49.6 °F 29.6 in SSW 6.4 mph 10.4 mph 56% 0 in BKN
21:46 66 °F 49.5 °F 29.6 in SW 6.9 mph 12.7 mph 55% 0 in BKN
21:51 66.2 °F 49.1 °F 29.6 in South 6.9 mph 10.4 mph 54% 0 in BKN
21:56 66.4 °F 48.7 °F 29.6 in South 8.5 mph 10.4 mph 53% 0 in BKN
22:01 66.6 °F 47.8 °F 29.6 in SW 8.5 mph 12.7 mph 51% 0 in BKN
22:06 66.7 °F 47.5 °F 29.6 in SW 8.5 mph 12.3 mph 50% 0 in BKN
22:11 66.9 °F 47.7 °F 29.6 in SSW 8.5 mph 13.8 mph 50% 0 in BKN
22:16 66.9 °F 47.1 °F 29.6 in SW 9.7 mph 12.7 mph 49% 0 in BKN
22:21 67.1 °F 46.8 °F 29.6 in SW 9.7 mph 11.5 mph 48% 0 in BKN
22:26 67.3 °F 46.9 °F 29.6 in SW 8.5 mph 13.8 mph 48% 0 in BKN
22:31 67.3 °F 46.9 °F 29.6 in WSW 8.5 mph 13 mph 48% 0 in BKN
22:36 67.3 °F 47.5 °F 29.6 in SSW 9.7 mph 16.1 mph 49% 0 in BKN
22:41 66.9 °F 47.1 °F 29.6 in SSW 9.7 mph 17.3 mph 49% 0 in BKN
22:46 67.5 °F 45.3 °F 29.6 in SW 10.2 mph 21.9 mph 45% 0 in BKN
22:51 68.4 °F 46.2 °F 29.6 in SSE 10.2 mph 15 mph 45% 0 in BKN
22:56 68.2 °F 46.6 °F 29.6 in SW 11.2 mph 11.2 mph 46% 0 in BKN
23:01 67.5 °F 46.6 °F 29.6 in SW 11.2 mph 16.1 mph 47% 0 in BKN
23:06 67.3 °F 46.4 °F 29.6 in WSW 8.5 mph 11.5 mph 47% 0 in BKN
23:11 67.3 °F 46.9 °F 29.6 in SSW 8.5 mph 10.4 mph 48% 0 in BKN
23:16 66.9 °F 46.6 °F 29.6 in SSE 5.9 mph 8.7 mph 48% 0 in BKN
23:21 66.7 °F 46.4 °F 29.6 in South 5.9 mph 7.4 mph 48% 0 in BKN
23:26 66.7 °F 46.4 °F 29.6 in South 5.9 mph 5.9 mph 48% 0 in BKN
23:31 66.7 °F 46.4 °F 29.6 in SSW 5.9 mph 5.9 mph 48% 0 in BKN
23:36 66.7 °F 45.9 °F 29.6 in SW 3.6 mph 5.8 mph 47% 0 in BKN
23:41 66.9 °F 45.5 °F 29.6 in SW 3.6 mph 5.8 mph 46% 0 in BKN
23:46 67.3 °F 45.1 °F 29.6 in SW 4.3 mph 5.8 mph 45% 0 in BKN
23:51 67.3 °F 45.1 °F 29.6 in SW 4.3 mph 4.3 mph 45% 0 in BKN
23:56 67.5 °F 44.2 °F 29.6 in SW 3.1 mph 10.4 mph 43% 0 in BKN
Murcia-Puente Tocinos, España
Compliments of Weather Underground - 2.75 mb

La estación de MeteoMurcia.com, publica sus datos en los siguientes proyectos:

Meteoclimatic www.awekas.at

W3Counter
Web Analytics